Time;durP1;ratioP1;P1;durP2;ratioP2;P2;SDS_P1;SDS_P2;PMS_P1;PMS_P2;Temp;Humidity;BMP_temperature;BMP_pressure;BME280_temperature;BME280_humidity;BME280_pressure;Samples;Min_cycle;Max_cycle;Signal;HPM_P1;HPM_P2
2022/06/02 00:01:53;;;;;;;11.20;10.90;;;21.20;71.20;;;;;;5034509;28;20468;-69
2022/06/02 00:04:27;;;;;;;11.13;10.83;;;21.20;71.20;;;;;;5034557;28;20448;-69
2022/06/02 00:07:04;;;;;;;10.70;10.50;;;21.10;71.10;;;;;;5034139;28;20444;-69
2022/06/02 00:09:45;;;;;;;11.37;11.07;;;21.10;71.10;;;;;;5034448;28;20436;-69
2022/06/02 00:12:18;;;;;;;10.70;10.50;;;21.10;71.10;;;;;;5034349;28;20984;-69
2022/06/02 00:14:54;;;;;;;11.10;10.80;;;21.10;71.10;;;;;;5034268;28;20808;-69
2022/06/02 00:17:27;;;;;;;10.90;10.70;;;21.10;71.10;;;;;;5034102;28;20472;-69
2022/06/02 00:20:00;;;;;;;10.70;10.43;;;21.10;71.10;;;;;;5034119;28;21030;-69
2022/06/02 00:22:35;;;;;;;10.30;10.10;;;21.10;71.10;;;;;;5033210;28;20461;-69
2022/06/02 00:25:11;;;;;;;10.90;10.60;;;21.10;71.20;;;;;;5034507;28;20454;-69
2022/06/02 00:27:48;;;;;;;11.03;10.47;;;21.10;71.20;;;;;;5033972;28;20437;-69
2022/06/02 00:30:21;;;;;;;11.17;10.87;;;21.10;71.30;;;;;;5034044;28;20443;-69
2022/06/02 00:32:56;;;;;;;10.73;10.53;;;21.10;71.20;;;;;;5033315;28;20527;-69
2022/06/02 00:35:30;;;;;;;11.47;11.07;;;21.10;71.20;;;;;;5033782;28;20452;-69
2022/06/02 00:38:02;;;;;;;10.17;9.97;;;21.00;70.90;;;;;;5033682;28;20451;-69
2022/06/02 00:40:32;;;;;;;10.60;10.40;;;21.10;71.10;;;;;;5033919;28;20437;-69
2022/06/02 00:43:16;;;;;;;11.63;11.00;;;21.10;71.20;;;;;;5033665;28;20976;-68
2022/06/02 00:45:44;;;;;;;11.40;11.10;;;21.00;71.00;;;;;;5033728;28;20441;-68
2022/06/02 00:48:15;;;;;;;11.17;10.87;;;21.00;71.10;;;;;;5033516;28;20446;-68
2022/06/02 00:50:54;;;;;;;11.10;10.80;;;21.00;71.00;;;;;;5033661;28;20449;-69
2022/06/02 00:57:30;;;;;;;11.70;11.40;;;21.00;71.10;;;;;;5033344;28;20839;-69
2022/06/02 00:59:39;;;;;;;11.27;10.97;;;21.00;71.20;;;;;;4991460;28;20478;-68
2022/06/02 01:02:06;;;;;;;11.20;10.90;;;21.00;71.30;;;;;;5025000;28;20465;-69
2022/06/02 01:04:36;;;;;;;11.83;11.53;;;21.00;71.30;;;;;;5033252;28;20449;-69
2022/06/02 01:07:15;;;;;;;11.00;10.80;;;21.00;71.20;;;;;;5033230;28;20445;-69
2022/06/02 01:10:06;;;;;;;10.70;10.50;;;20.90;71.30;;;;;;5032890;28;20449;-69
2022/06/02 01:13:01;;;;;;;10.60;10.30;;;20.90;71.20;;;;;;5031060;28;20476;-68
2022/06/02 01:15:40;;;;;;;11.23;10.93;;;21.00;71.30;;;;;;5033208;28;20445;-69
2022/06/02 01:18:18;;;;;;;11.20;10.90;;;21.00;71.30;;;;;;5033066;28;20441;-68
2022/06/02 01:20:59;;;;;;;12.00;11.70;;;20.90;71.10;;;;;;5032998;28;20437;-68
2022/06/02 01:24:02;;;;;;;11.03;10.73;;;20.90;71.20;;;;;;5013182;28;20981;-68
2022/06/02 01:26:45;;;;;;;11.50;11.20;;;20.90;71.20;;;;;;5011654;28;20845;-68
2022/06/02 01:29:39;;;;;;;11.17;10.87;;;20.90;71.30;;;;;;5013956;28;20453;-68
2022/06/02 01:32:10;;;;;;;10.90;10.60;;;20.90;71.30;;;;;;5032680;28;20473;-68
2022/06/02 01:34:56;;;;;;;10.80;10.60;;;20.90;71.30;;;;;;5031930;28;20441;-68
2022/06/02 01:37:28;;;;;;;11.40;11.10;;;20.90;72.10;;;;;;5032665;28;20449;-68
2022/06/02 01:40:12;;;;;;;10.90;10.60;;;20.90;71.30;;;;;;5032385;28;20481;-68
2022/06/02 01:42:55;;;;;;;10.67;10.47;;;20.90;71.40;;;;;;5032568;28;20526;-68
2022/06/02 01:45:49;;;;;;;11.10;10.80;;;20.90;71.30;;;;;;5032779;28;20449;-68
2022/06/02 01:48:29;;;;;;;11.00;10.70;;;20.90;71.20;;;;;;5032370;28;20808;-68
2022/06/02 01:51:04;;;;;;;11.80;11.50;;;20.90;71.30;;;;;;5032268;28;20488;-68
2022/06/02 01:53:49;;;;;;;11.70;11.40;;;20.90;71.30;;;;;;5032331;28;20556;-68
2022/06/02 01:56:28;;;;;;;11.47;11.17;;;20.80;71.10;;;;;;5032402;28;20444;-69
2022/06/02 01:59:07;;;;;;;11.23;10.93;;;20.80;71.10;;;;;;5032084;28;20503;-68
2022/06/02 02:01:45;;;;;;;11.03;10.73;;;20.80;71.10;;;;;;5031955;28;20464;-68
2022/06/02 02:04:29;;;;;;;10.83;10.53;;;20.80;71.00;;;;;;5032596;28;20449;-69
2022/06/02 02:07:02;;;;;;;11.80;11.50;;;20.80;71.10;;;;;;5032061;28;20452;-68
2022/06/02 02:09:37;;;;;;;11.60;11.30;;;20.80;71.10;;;;;;5031844;28;20445;-68
2022/06/02 02:12:09;;;;;;;10.90;10.60;;;20.80;71.00;;;;;;5032149;28;20483;-68
2022/06/02 02:14:56;;;;;;;10.97;10.67;;;20.80;71.10;;;;;;5031976;28;20441;-68
2022/06/02 02:17:55;;;;;;;11.30;11.00;;;20.80;70.90;;;;;;5031932;28;20781;-69
2022/06/02 02:20:31;;;;;;;11.27;10.97;;;20.80;71.00;;;;;;5031824;28;20485;-68
2022/06/02 02:23:04;;;;;;;11.30;11.00;;;20.80;70.90;;;;;;5031890;28;20461;-68
2022/06/02 02:25:39;;;;;;;10.90;10.60;;;20.80;71.10;;;;;;5031958;28;20452;-68
2022/06/02 02:28:12;;;;;;;11.20;10.90;;;20.80;71.00;;;;;;5031632;28;20456;-68
2022/06/02 02:31:03;;;;;;;11.03;10.80;;;20.80;71.10;;;;;;5031822;28;20452;-68
2022/06/02 02:33:44;;;;;;;11.17;10.87;;;20.70;70.90;;;;;;5031651;28;20487;-68
2022/06/02 02:36:21;;;;;;;11.00;10.70;;;20.80;71.00;;;;;;5031813;28;20955;-68
2022/06/02 02:38:56;;;;;;;11.53;11.23;;;20.80;71.00;;;;;;5031469;28;20948;-68
2022/06/02 02:41:31;;;;;;;11.90;11.60;;;20.70;70.90;;;;;;5031435;28;20452;-68
2022/06/02 02:44:06;;;;;;;11.50;11.20;;;20.70;70.90;;;;;;5031887;28;20441;-68
2022/06/02 02:46:42;;;;;;;10.90;10.60;;;20.70;71.00;;;;;;5031366;28;20475;-68
2022/06/02 02:49:15;;;;;;;10.23;10.03;;;20.70;70.80;;;;;;5031471;28;20436;-68
2022/06/02 02:51:50;;;;;;;11.57;11.27;;;20.70;70.70;;;;;;5031610;28;20465;-68
2022/06/02 02:54:25;;;;;;;11.10;10.80;;;20.70;70.30;;;;;;5031611;28;20448;-69
2022/06/02 02:57:00;;;;;;;11.50;11.20;;;20.70;70.30;;;;;;5031575;28;20455;-68
2022/06/02 02:59:39;;;;;;;11.03;10.73;;;20.70;70.30;;;;;;5011623;28;20845;-68
2022/06/02 03:02:15;;;;;;;10.90;10.60;;;20.70;70.40;;;;;;5011612;28;20829;-68
2022/06/02 03:04:50;;;;;;;11.67;11.37;;;20.70;70.50;;;;;;5011861;28;20449;-68
2022/06/02 03:07:20;;;;;;;11.57;11.27;;;20.70;70.50;;;;;;5014197;28;20458;-68
2022/06/02 03:10:00;;;;;;;11.33;11.03;;;20.70;70.40;;;;;;5018859;28;20552;-67
2022/06/02 03:12:41;;;;;;;11.60;11.30;;;20.70;70.30;;;;;;5031311;28;20471;-67
2022/06/02 03:15:24;;;;;;;12.23;11.73;;;20.70;70.30;;;;;;5031559;28;20816;-68
2022/06/02 03:18:25;;;;;;;11.47;11.17;;;20.70;70.30;;;;;;5030819;28;20449;-67
2022/06/02 03:20:58;;;;;;;11.33;11.03;;;20.70;70.50;;;;;;5031335;28;20484;-67
2022/06/02 03:23:43;;;;;;;11.77;11.43;;;20.70;70.40;;;;;;5031152;28;20465;-67
2022/06/02 03:26:15;;;;;;;11.80;11.50;;;20.60;70.40;;;;;;5031296;28;20456;-68
2022/06/02 03:28:53;;;;;;;11.37;11.07;;;20.60;70.60;;;;;;5030810;28;20464;-67
2022/06/02 03:31:29;;;;;;;11.83;11.47;;;20.70;70.70;;;;;;5031079;28;20444;-68
2022/06/02 03:34:12;;;;;;;11.90;11.60;;;20.60;70.80;;;;;;5031370;28;20448;-67
2022/06/02 03:36:56;;;;;;;11.50;11.20;;;20.60;70.80;;;;;;5031160;28;20532;-67
2022/06/02 03:39:35;;;;;;;12.73;12.43;;;20.60;71.00;;;;;;5011394;28;20859;-68
2022/06/02 03:42:16;;;;;;;12.23;11.93;;;20.60;71.10;;;;;;5018968;28;20472;-68
2022/06/02 03:45:08;;;;;;;12.10;11.80;;;20.60;71.20;;;;;;5031116;28;20444;-68
2022/06/02 03:47:54;;;;;;;11.60;11.30;;;20.60;71.40;;;;;;5030814;28;20754;-68
2022/06/02 03:50:36;;;;;;;12.00;11.70;;;20.60;71.50;;;;;;5031354;28;20434;-67
2022/06/02 03:53:21;;;;;;;11.60;11.30;;;20.60;71.50;;;;;;5031300;28;20479;-68
2022/06/02 03:56:01;;;;;;;12.57;12.17;;;20.60;71.40;;;;;;5030946;28;20448;-68
2022/06/02 03:58:40;;;;;;;12.50;11.90;;;20.60;71.70;;;;;;5033922;28;20448;-68
2022/06/02 04:01:12;;;;;;;12.70;11.77;;;20.60;73.60;;;;;;5034537;28;20487;-68
2022/06/02 04:03:56;;;;;;;14.57;13.40;;;20.60;77.70;;;;;;5034720;28;20449;-68
2022/06/02 04:06:35;;;;;;;19.23;17.13;;;20.60;83.20;;;;;;5034497;28;20456;-68
2022/06/02 04:09:14;;;;;;;15.53;14.50;;;20.60;87.30;;;;;;5034057;28;20455;-68
2022/06/02 04:15:10;;;;;;;17.33;15.70;;;20.60;84.40;;;;;;5034468;28;20503;-65
2022/06/02 04:17:48;;;;;;;17.90;16.87;;;20.50;83.30;;;;;;5033868;28;20441;-65
2022/06/02 04:20:37;;;;;;;17.00;15.80;;;20.50;86.40;;;;;;5034383;28;20476;-65
2022/06/02 04:23:49;;;;;;;17.00;15.90;;;20.50;84.20;;;;;;5034190;28;20476;-66
2022/06/02 04:26:35;;;;;;;15.63;14.83;;;20.50;83.70;;;;;;4998858;28;20463;-67
2022/06/02 04:29:15;;;;;;;15.70;15.10;;;20.50;81.60;;;;;;5033799;28;20445;-67
2022/06/02 04:34:21;;;;;;;16.57;15.43;;;20.50;79.00;;;;;;5032621;28;20870;-65
2022/06/02 04:37:01;;;;;;;17.33;16.37;;;20.50;78.20;;;;;;5014185;28;20449;-65
2022/06/02 04:39:35;;;;;;;15.50;14.90;;;20.50;77.40;;;;;;5014059;28;20445;-66
2022/06/02 04:42:12;;;;;;;16.80;15.83;;;20.50;76.70;;;;;;5016972;28;20472;-65
2022/06/02 04:44:46;;;;;;;15.53;14.83;;;20.50;76.00;;;;;;5033797;28;20923;-66
2022/06/02 04:47:22;;;;;;;16.10;15.40;;;20.50;75.40;;;;;;5033506;28;20445;-65
2022/06/02 04:49:57;;;;;;;15.20;14.63;;;20.50;74.80;;;;;;5033879;28;20452;-66
2022/06/02 04:52:44;;;;;;;15.20;14.50;;;20.50;74.30;;;;;;5033867;28;20471;-64
2022/06/02 04:55:18;;;;;;;15.90;15.13;;;20.50;73.90;;;;;;5033656;28;20449;-65
2022/06/02 04:57:52;;;;;;;15.50;15.00;;;20.40;73.40;;;;;;5033618;28;20436;-65
2022/06/02 05:00:27;;;;;;;15.87;15.17;;;20.50;73.30;;;;;;5033469;28;20477;-65
2022/06/02 05:03:00;;;;;;;15.80;15.20;;;20.50;72.80;;;;;;5033651;28;20460;-66
2022/06/02 05:05:35;;;;;;;15.20;14.70;;;20.40;72.40;;;;;;5033338;28;20442;-65
2022/06/02 05:08:36;;;;;;;15.83;15.27;;;20.40;72.20;;;;;;5033342;28;20451;-65
2022/06/02 05:11:14;;;;;;;15.93;15.23;;;20.40;71.90;;;;;;5025936;28;20452;-65
2022/06/02 05:13:54;;;;;;;15.77;15.20;;;20.40;71.60;;;;;;5033482;28;20464;-65
2022/06/02 05:16:28;;;;;;;16.77;16.10;;;20.40;71.40;;;;;;5033272;28;20449;-65
2022/06/02 05:19:18;;;;;;;16.20;15.50;;;20.30;71.20;;;;;;5032994;28;20436;-65
2022/06/02 05:22:03;;;;;;;16.00;15.20;;;20.40;71.20;;;;;;5032820;28;20492;-65
2022/06/02 05:24:57;;;;;;;16.60;15.87;;;20.30;70.80;;;;;;5033041;28;20947;-66
2022/06/02 05:27:45;;;;;;;15.13;14.63;;;20.30;70.70;;;;;;5033142;28;20448;-67
2022/06/02 05:30:26;;;;;;;16.10;15.43;;;20.30;70.50;;;;;;5033090;28;20436;-65
2022/06/02 05:33:27;;;;;;;16.13;15.53;;;20.30;70.30;;;;;;5032849;28;20476;-64
2022/06/02 05:36:33;;;;;;;15.43;14.83;;;20.30;70.20;;;;;;5032808;28;20950;-65
2022/06/02 05:39:21;;;;;;;16.93;16.23;;;20.30;70.00;;;;;;5029095;28;21088;-65
2022/06/02 05:42:04;;;;;;;16.00;15.40;;;20.30;70.00;;;;;;5032480;28;20815;-65
2022/06/02 05:44:44;;;;;;;15.73;15.23;;;20.20;69.80;;;;;;5032947;28;20440;-68
2022/06/02 05:47:25;;;;;;;16.77;16.00;;;20.30;69.70;;;;;;5032439;28;20449;-66
2022/06/02 05:50:02;;;;;;;15.40;14.83;;;20.30;69.60;;;;;;5032439;28;20452;-65
2022/06/02 05:52:39;;;;;;;16.00;15.40;;;20.30;69.60;;;;;;5032483;28;20475;-66
2022/06/02 05:55:29;;;;;;;16.37;15.67;;;20.30;69.50;;;;;;5032481;28;20448;-65
2022/06/02 05:58:19;;;;;;;16.60;16.00;;;20.20;69.90;;;;;;5032312;28;20650;-65
2022/06/02 06:00:58;;;;;;;16.70;16.10;;;20.20;69.30;;;;;;5025285;28;20492;-65
2022/06/02 06:03:43;;;;;;;16.80;16.07;;;20.20;69.30;;;;;;5032607;28;20461;-65
2022/06/02 06:06:24;;;;;;;15.57;14.97;;;20.20;69.20;;;;;;5032313;28;20441;-64
2022/06/02 06:09:02;;;;;;;15.50;14.90;;;20.20;69.30;;;;;;5032162;28;20966;-64
2022/06/02 06:11:50;;;;;;;15.73;15.23;;;20.20;69.20;;;;;;5032229;28;20445;-68
2022/06/02 06:14:26;;;;;;;15.23;14.73;;;20.20;69.20;;;;;;5032234;28;20472;-65
2022/06/02 06:17:03;;;;;;;15.53;14.93;;;20.20;69.20;;;;;;5031907;28;20445;-64
2022/06/02 06:19:52;;;;;;;15.70;15.10;;;20.20;69.10;;;;;;5031457;28;20777;-66
2022/06/02 06:22:49;;;;;;;15.53;14.93;;;20.20;69.40;;;;;;5031871;28;20464;-67
2022/06/02 06:25:27;;;;;;;16.13;15.50;;;20.20;69.00;;;;;;5031979;28;20469;-65
2022/06/02 06:28:09;;;;;;;16.50;15.90;;;20.20;69.10;;;;;;5031821;28;20449;-65
2022/06/02 06:30:50;;;;;;;15.27;14.70;;;20.20;69.10;;;;;;5031996;28;20516;-65
2022/06/02 06:33:27;;;;;;;16.00;15.40;;;20.20;69.10;;;;;;5031960;28;20531;-65
2022/06/02 06:36:06;;;;;;;16.20;15.50;;;20.20;69.00;;;;;;5031889;28;20449;-67
2022/06/02 06:38:54;;;;;;;15.97;15.40;;;20.20;69.00;;;;;;5031586;28;20451;-65
2022/06/02 06:41:58;;;;;;;16.90;16.10;;;20.20;69.00;;;;;;5031790;28;20481;-65
2022/06/02 06:44:27;;;;;;;15.57;15.03;;;20.20;69.20;;;;;;5007291;28;20456;-65
2022/06/02 06:47:03;;;;;;;15.63;15.03;;;20.20;69.00;;;;;;5031515;28;20448;-65
2022/06/02 06:49:44;;;;;;;15.50;15.00;;;20.20;69.00;;;;;;5031662;28;20444;-65
2022/06/02 06:52:34;;;;;;;15.87;15.27;;;20.10;68.90;;;;;;5031625;28;20461;-65
2022/06/02 06:55:11;;;;;;;15.30;14.80;;;20.10;68.90;;;;;;5031663;28;20445;-65
2022/06/02 06:57:47;;;;;;;15.30;14.80;;;20.20;69.00;;;;;;5031611;28;20449;-64
2022/06/02 07:00:19;;;;;;;16.03;15.40;;;20.10;68.80;;;;;;5031668;28;20452;-65
2022/06/02 07:02:59;;;;;;;15.87;15.27;;;20.10;68.90;;;;;;5031480;28;20472;-63
2022/06/02 07:05:30;;;;;;;15.10;14.53;;;20.10;69.00;;;;;;5031453;28;20444;-65
2022/06/02 07:08:06;;;;;;;15.23;14.63;;;20.10;69.30;;;;;;5031393;28;20457;-67
2022/06/02 07:10:42;;;;;;;15.47;14.97;;;20.10;69.10;;;;;;5031385;28;20447;-66
2022/06/02 07:13:18;;;;;;;15.40;14.80;;;20.10;69.10;;;;;;5031358;28;20499;-67
2022/06/02 07:15:51;;;;;;;15.10;14.60;;;20.10;69.20;;;;;;5031422;28;20433;-67
2022/06/02 07:18:40;;;;;;;14.90;14.40;;;20.10;69.10;;;;;;5031521;28;20456;-66
2022/06/02 07:21:18;;;;;;;15.00;14.50;;;20.10;69.00;;;;;;5031201;28;20488;-66
2022/06/02 07:23:57;;;;;;;15.00;14.40;;;20.10;69.20;;;;;;5031314;28;20475;-65
2022/06/02 07:26:38;;;;;;;15.73;15.03;;;20.10;69.40;;;;;;5031346;28;20455;-64
2022/06/02 07:29:15;;;;;;;15.50;15.00;;;20.10;69.20;;;;;;5031244;28;20473;-68
2022/06/02 07:32:11;;;;;;;15.53;14.93;;;20.10;69.10;;;;;;5031959;28;20437;-65
2022/06/02 07:34:55;;;;;;;14.93;14.40;;;20.10;69.20;;;;;;5017591;28;20453;-65
2022/06/02 07:37:33;;;;;;;15.63;15.13;;;20.10;69.20;;;;;;5034890;28;20452;-66
2022/06/02 07:40:28;;;;;;;15.40;14.80;;;20.10;69.20;;;;;;5035020;28;20966;-65
2022/06/02 07:43:29;;;;;;;15.20;14.70;;;20.10;69.20;;;;;;5034877;28;20984;-65
2022/06/02 07:46:06;;;;;;;15.77;15.23;;;20.10;69.30;;;;;;5034837;28;20444;-65
2022/06/02 07:48:57;;;;;;;14.77;14.27;;;20.10;69.20;;;;;;5034694;28;20446;-65
2022/06/02 07:51:28;;;;;;;15.17;14.53;;;20.10;69.20;;;;;;5034774;28;20441;-66
2022/06/02 07:54:17;;;;;;;16.60;15.90;;;20.10;69.20;;;;;;5034839;28;20461;-65
2022/06/02 07:56:53;;;;;;;15.53;14.93;;;20.10;69.30;;;;;;5034677;28;20452;-67
2022/06/02 07:59:42;;;;;;;14.70;14.30;;;20.10;69.60;;;;;;5034689;28;20449;-65
2022/06/02 08:02:38;;;;;;;15.10;14.60;;;20.10;69.30;;;;;;5034569;28;20488;-65
2022/06/02 08:05:14;;;;;;;15.43;14.90;;;20.10;69.30;;;;;;5034562;28;20880;-65
2022/06/02 08:07:47;;;;;;;15.57;15.00;;;20.10;69.30;;;;;;5034410;28;20445;-65
2022/06/02 08:10:20;;;;;;;15.03;14.53;;;20.10;69.20;;;;;;5034547;28;20763;-65
2022/06/02 08:12:56;;;;;;;15.10;14.60;;;20.10;69.20;;;;;;5034275;28;20465;-66
2022/06/02 08:15:38;;;;;;;15.20;14.70;;;20.10;69.20;;;;;;5034444;28;20466;-65
2022/06/02 08:18:20;;;;;;;15.57;14.97;;;20.10;69.00;;;;;;5034248;28;20491;-68
2022/06/02 08:20:55;;;;;;;15.03;14.53;;;20.10;68.90;;;;;;5034092;28;20867;-64
2022/06/02 08:23:44;;;;;;;14.47;13.87;;;20.10;68.80;;;;;;5034248;28;20472;-65
2022/06/02 08:26:16;;;;;;;15.13;14.63;;;20.10;68.70;;;;;;5034209;28;20448;-65
2022/06/02 08:29:02;;;;;;;15.37;14.67;;;20.10;68.70;;;;;;5033964;28;20449;-67
2022/06/02 08:31:56;;;;;;;14.80;14.23;;;20.10;68.70;;;;;;5034142;28;20924;-66
2022/06/02 08:34:31;;;;;;;14.97;14.40;;;20.10;68.50;;;;;;5034078;28;20442;-66
2022/06/02 08:37:04;;;;;;;15.00;14.50;;;20.10;68.40;;;;;;5033879;28;20441;-66
2022/06/02 08:39:48;;;;;;;15.03;14.40;;;20.10;68.40;;;;;;5034329;28;20444;-65
2022/06/02 08:42:36;;;;;;;14.37;13.97;;;20.10;68.30;;;;;;5033334;28;20488;-63
2022/06/02 08:45:30;;;;;;;14.27;13.80;;;20.10;68.20;;;;;;5033764;28;20468;-67
2022/06/02 08:48:33;;;;;;;14.20;13.80;;;20.10;68.10;;;;;;5033637;28;20464;-67
2022/06/02 08:51:39;;;;;;;15.10;14.70;;;20.10;68.00;;;;;;5033583;28;20436;-65
2022/06/02 08:54:35;;;;;;;15.33;14.83;;;20.10;67.90;;;;;;4995267;28;20466;-65
2022/06/02 08:57:26;;;;;;;15.17;14.67;;;20.10;67.70;;;;;;5033527;28;20453;-63
2022/06/02 09:00:24;;;;;;;15.80;15.20;;;20.00;67.40;;;;;;5033494;28;20452;-66
2022/06/02 09:03:29;;;;;;;15.57;15.07;;;20.00;67.40;;;;;;5033306;28;20489;-66
2022/06/02 09:06:25;;;;;;;14.90;14.40;;;20.10;67.40;;;;;;5022887;28;20995;-66
2022/06/02 09:09:16;;;;;;;14.73;14.30;;;20.10;67.30;;;;;;5033174;28;20448;-67
2022/06/02 09:11:59;;;;;;;14.90;14.40;;;20.10;67.30;;;;;;5033338;28;20503;-65
2022/06/02 09:14:57;;;;;;;15.20;14.70;;;20.10;67.30;;;;;;5033360;28;20928;-66
2022/06/02 09:17:28;;;;;;;14.60;14.17;;;20.10;66.90;;;;;;5033090;28;20445;-67
2022/06/02 09:20:14;;;;;;;15.27;14.77;;;20.10;66.90;;;;;;5033175;28;20441;-66
2022/06/02 09:23:03;;;;;;;15.23;14.73;;;20.00;66.60;;;;;;5033065;28;20539;-66
2022/06/02 09:25:52;;;;;;;14.33;13.87;;;20.10;66.50;;;;;;5033002;28;20465;-69
2022/06/02 09:28:50;;;;;;;14.30;13.90;;;20.10;66.40;;;;;;5032918;28;20445;-66
2022/06/02 09:31:43;;;;;;;14.87;14.37;;;20.10;66.20;;;;;;5033000;28;20449;-67
2022/06/02 09:34:41;;;;;;;13.93;13.53;;;20.10;66.20;;;;;;5031067;28;20449;-66
2022/06/02 09:37:41;;;;;;;15.50;14.90;;;20.10;66.20;;;;;;5032664;28;20503;-69
2022/06/02 09:40:34;;;;;;;14.50;14.10;;;20.10;66.20;;;;;;5032688;28;20445;-66
2022/06/02 09:43:39;;;;;;;13.57;13.17;;;20.10;66.10;;;;;;5032623;28;20567;-68
2022/06/02 09:46:26;;;;;;;15.00;14.50;;;20.10;66.20;;;;;;5022263;28;20814;-64
2022/06/02 09:49:06;;;;;;;14.63;14.07;;;20.10;66.10;;;;;;5023542;28;20456;-65
2022/06/02 09:51:53;;;;;;;15.03;14.53;;;20.10;66.00;;;;;;5032720;28;20437;-65
2022/06/02 09:54:35;;;;;;;14.50;14.10;;;20.10;66.00;;;;;;5031757;28;20449;-66
2022/06/02 10:00:20;;;;;;;14.80;14.10;;;20.10;65.80;;;;;;5032570;28;20436;-66
2022/06/02 10:03:02;;;;;;;14.53;14.10;;;20.10;65.80;;;;;;5032130;28;21006;-66
2022/06/02 10:05:52;;;;;;;14.67;14.27;;;20.10;65.70;;;;;;5032432;28;20451;-66
2022/06/02 10:08:32;;;;;;;14.97;14.47;;;20.10;65.70;;;;;;5032130;28;20452;-66
2022/06/02 10:11:11;;;;;;;16.23;15.63;;;20.20;65.10;;;;;;5032184;28;20823;-64
2022/06/02 10:14:10;;;;;;;13.93;13.53;;;20.10;65.40;;;;;;5032180;28;20559;-66
2022/06/02 10:17:07;;;;;;;14.60;14.10;;;20.20;65.40;;;;;;5030168;28;20855;-65
2022/06/02 10:20:25;;;;;;;14.30;13.90;;;20.10;65.30;;;;;;5032246;28;20445;-65
2022/06/02 10:23:00;;;;;;;14.77;14.37;;;20.20;66.10;;;;;;4962627;28;20498;-67
2022/06/02 10:25:48;;;;;;;14.90;14.40;;;20.10;65.20;;;;;;5020999;28;20511;-65
2022/06/02 10:28:53;;;;;;;15.20;14.70;;;20.20;64.90;;;;;;5031745;28;20449;-65
2022/06/02 10:31:53;;;;;;;14.73;14.33;;;20.20;64.70;;;;;;5031849;28;20855;-64
2022/06/02 10:35:06;;;;;;;15.17;14.77;;;20.20;64.70;;;;;;5032401;28;20456;-65
2022/06/02 10:38:01;;;;;;;14.87;14.43;;;20.20;64.70;;;;;;5031614;28;20440;-66
2022/06/02 10:40:47;;;;;;;15.83;15.40;;;20.20;64.50;;;;;;5031685;28;20456;-66
2022/06/02 10:43:53;;;;;;;14.60;14.20;;;20.20;64.50;;;;;;5031443;28;20500;-66
2022/06/02 10:47:06;;;;;;;14.80;14.40;;;20.20;64.30;;;;;;5013333;28;20460;-66
2022/06/02 10:49:40;;;;;;;15.00;14.60;;;20.20;63.90;;;;;;5031720;28;20944;-66
2022/06/02 10:52:40;;;;;;;15.27;14.77;;;20.20;64.10;;;;;;5031759;28;20460;-65
2022/06/02 10:55:40;;;;;;;14.80;14.40;;;20.30;64.30;;;;;;5031684;28;20456;-67
2022/06/02 10:58:59;;;;;;;15.57;15.07;;;20.30;63.90;;;;;;5031360;28;20444;-66
2022/06/02 11:02:05;;;;;;;14.30;13.90;;;20.30;64.00;;;;;;5031309;28;20481;-67
2022/06/02 11:05:04;;;;;;;14.60;14.20;;;20.30;64.10;;;;;;5031591;28;20441;-67
2022/06/02 11:08:08;;;;;;;14.60;14.20;;;20.30;64.20;;;;;;5035305;28;20842;-66
2022/06/02 11:10:53;;;;;;;15.43;14.93;;;20.30;63.90;;;;;;5035701;28;20444;-65
2022/06/02 11:14:08;;;;;;;14.60;14.20;;;20.30;63.70;;;;;;5035725;28;20453;-66
2022/06/02 11:17:05;;;;;;;14.50;14.10;;;20.30;63.60;;;;;;4993870;28;20453;-67
2022/06/02 11:20:10;;;;;;;14.70;14.20;;;20.30;63.50;;;;;;5034144;28;20472;-65
2022/06/02 11:23:07;;;;;;;14.80;14.37;;;20.40;63.70;;;;;;5022933;28;20515;-65
2022/06/02 11:25:58;;;;;;;14.47;14.03;;;20.30;63.10;;;;;;5035276;28;20924;-66
2022/06/02 11:29:10;;;;;;;14.97;14.47;;;20.30;63.30;;;;;;5035000;28;20436;-66
2022/06/02 11:32:00;;;;;;;15.03;14.63;;;20.30;63.30;;;;;;5033328;28;20464;-66
2022/06/02 11:34:54;;;;;;;15.87;15.40;;;20.30;63.30;;;;;;5035106;28;20808;-66
2022/06/02 11:37:59;;;;;;;14.23;13.83;;;20.40;62.90;;;;;;5034927;28;20460;-67
2022/06/02 11:40:46;;;;;;;15.03;14.53;;;20.40;62.80;;;;;;4993265;28;20450;-67
2022/06/02 11:43:15;;;;;;;15.10;14.67;;;20.40;62.80;;;;;;5030457;28;20491;-67
2022/06/02 11:46:03;;;;;;;14.40;14.00;;;20.40;63.00;;;;;;5034880;28;20823;-66
2022/06/02 11:49:00;;;;;;;15.40;15.00;;;20.40;62.80;;;;;;5034628;28;20452;-66
2022/06/02 11:51:49;;;;;;;14.40;14.00;;;20.40;62.80;;;;;;5031249;28;20457;-65
2022/06/02 11:54:44;;;;;;;14.20;13.80;;;20.50;63.20;;;;;;5034729;28;20449;-66
2022/06/02 11:57:31;;;;;;;14.70;14.30;;;20.50;63.30;;;;;;5013722;28;20512;-65
2022/06/02 12:00:22;;;;;;;13.97;13.57;;;20.50;62.90;;;;;;5034607;28;20491;-65
2022/06/02 12:03:21;;;;;;;14.57;14.17;;;20.50;63.20;;;;;;5034617;28;20491;-65
2022/06/02 12:06:27;;;;;;;14.40;14.00;;;20.50;63.20;;;;;;5034579;28;20463;-65
2022/06/02 12:09:25;;;;;;;14.40;14.00;;;20.50;62.80;;;;;;4998106;28;20453;-66
2022/06/02 12:12:03;;;;;;;15.07;14.67;;;20.50;62.40;;;;;;5034336;28;20441;-65
2022/06/02 12:14:59;;;;;;;14.67;14.27;;;20.50;62.30;;;;;;5034311;28;20436;-66
2022/06/02 12:17:42;;;;;;;14.40;14.00;;;20.50;62.50;;;;;;5014902;28;20962;-65
2022/06/02 12:20:26;;;;;;;14.73;14.23;;;20.50;62.30;;;;;;5034320;28;20452;-66
2022/06/02 12:23:14;;;;;;;15.40;15.00;;;20.50;62.30;;;;;;5034089;28;20495;-66
2022/06/02 12:26:06;;;;;;;14.70;14.30;;;20.60;62.10;;;;;;5034303;28;20453;-66
2022/06/02 12:28:48;;;;;;;14.00;13.60;;;20.60;62.00;;;;;;5024119;28;20852;-65
2022/06/02 12:32:00;;;;;;;14.50;14.10;;;20.60;62.00;;;;;;5034088;28;20540;-65
2022/06/02 12:34:55;;;;;;;14.40;13.90;;;20.60;62.10;;;;;;5034127;28;20433;-67
2022/06/02 12:37:47;;;;;;;14.53;14.13;;;20.60;62.00;;;;;;5033847;28;20437;-66
2022/06/02 12:40:34;;;;;;;14.10;13.70;;;20.60;61.90;;;;;;5034075;28;20503;-66
2022/06/02 12:43:35;;;;;;;14.50;14.10;;;20.70;62.20;;;;;;5033899;28;20488;-66
2022/06/02 12:46:41;;;;;;;14.87;14.47;;;20.70;62.20;;;;;;5033873;28;20444;-66
2022/06/02 12:49:47;;;;;;;14.20;13.80;;;20.70;62.30;;;;;;5033810;28;20445;-66
2022/06/02 12:53:06;;;;;;;14.07;13.67;;;20.70;62.40;;;;;;5033795;28;20468;-67
2022/06/02 12:55:59;;;;;;;14.67;14.27;;;20.70;62.30;;;;;;5009486;28;20455;-67
2022/06/02 12:58:58;;;;;;;14.17;13.77;;;20.70;62.40;;;;;;5033576;28;20457;-65
2022/06/02 13:01:45;;;;;;;13.47;13.07;;;20.70;62.50;;;;;;5033512;28;20449;-66
2022/06/02 13:04:42;;;;;;;15.30;14.90;;;20.80;62.50;;;;;;5033495;28;20444;-65
2022/06/02 13:07:55;;;;;;;14.10;13.70;;;20.70;62.50;;;;;;5015395;28;20460;-66
2022/06/02 13:10:34;;;;;;;14.97;14.57;;;20.80;63.40;;;;;;5033379;28;20441;-66
2022/06/02 13:13:48;;;;;;;14.70;14.30;;;20.80;62.70;;;;;;5033249;28;20875;-66
2022/06/02 13:16:33;;;;;;;15.90;15.40;;;20.80;62.70;;;;;;4991652;28;20544;-66
2022/06/02 13:19:32;;;;;;;14.93;14.53;;;20.80;62.70;;;;;;4991320;28;20463;-65
2022/06/02 13:22:40;;;;;;;14.90;14.50;;;20.90;62.70;;;;;;5028400;28;20453;-67
2022/06/02 13:25:47;;;;;;;14.93;14.53;;;20.90;62.60;;;;;;4994787;28;20447;-66
2022/06/02 13:28:51;;;;;;;13.90;13.50;;;20.90;62.60;;;;;;5032732;28;20802;-66
2022/06/02 13:31:44;;;;;;;14.40;14.00;;;20.90;62.60;;;;;;5033080;28;20468;-67
2022/06/02 13:34:48;;;;;;;14.23;13.83;;;20.90;62.60;;;;;;5032910;28;20444;-67
2022/06/02 13:37:36;;;;;;;14.13;13.73;;;20.90;62.60;;;;;;5032632;28;20441;-67
2022/06/02 13:40:23;;;;;;;14.60;14.20;;;21.00;62.90;;;;;;5032880;28;20451;-66
2022/06/02 13:43:35;;;;;;;14.57;14.17;;;21.00;62.90;;;;;;5032548;28;20494;-67
2022/06/02 13:46:47;;;;;;;15.57;15.07;;;21.00;62.90;;;;;;5032749;28;20448;-66
2022/06/02 13:49:55;;;;;;;15.17;14.67;;;21.00;62.70;;;;;;5032603;28;20441;-66
2022/06/02 13:52:49;;;;;;;14.10;13.70;;;21.00;62.60;;;;;;5032618;28;20469;-66
2022/06/02 13:58:47;;;;;;;14.57;14.17;;;21.00;62.60;;;;;;5032581;28;20782;-66
2022/06/02 14:01:37;;;;;;;15.17;14.63;;;21.10;62.70;;;;;;5032457;28;20456;-66
2022/06/02 14:04:22;;;;;;;15.10;14.70;;;21.10;62.50;;;;;;5032241;28;20995;-67
2022/06/02 14:06:54;;;;;;;14.20;13.70;;;21.10;62.40;;;;;;5041255;28;20448;-67
2022/06/02 14:09:43;;;;;;;15.20;14.60;;;21.10;62.30;;;;;;5032607;28;20453;-68
2022/06/02 14:12:27;;;;;;;14.80;14.40;;;21.20;63.70;;;;;;5032188;28;20526;-67
2022/06/02 14:15:13;;;;;;;13.90;13.53;;;21.20;64.40;;;;;;5032129;28;20808;-68
2022/06/02 14:18:02;;;;;;;15.60;14.90;;;21.30;65.50;;;;;;5032935;28;20460;-67